Time;durP1;ratioP1;P1;durP2;ratioP2;P2;SDS_P1;SDS_P2;PMS_P1;PMS_P2;Temp;Humidity;BMP_temperature;BMP_pressure;BME280_temperature;BME280_humidity;BME280_pressure;Samples;Min_cycle;Max_cycle;Signal;HPM_P1;HPM_P2
2023/01/19 00:01:36;;;;;;;;;;;19.40;83.90;;;;;;6307951;22;20337;-72
2023/01/19 00:04:02;;;;;;;;;;;19.40;84.20;;;;;;6307789;22;19910;-72
2023/01/19 00:06:30;;;;;;;;;;;19.40;83.50;;;;;;6280888;22;19918;-72
2023/01/19 00:08:57;;;;;;;;;;;19.50;83.00;;;;;;6307810;22;19977;-72
2023/01/19 00:11:23;;;;;;;;;;;19.50;84.10;;;;;;6280720;22;19903;-72
2023/01/19 00:13:50;;;;;;;;;;;19.40;82.80;;;;;;6307914;22;20298;-72
2023/01/19 00:16:17;;;;;;;;;;;19.40;83.70;;;;;;6307313;22;19903;-71
2023/01/19 00:18:44;;;;;;;;;;;19.40;83.10;;;;;;6307865;22;19907;-72
2023/01/19 00:21:13;;;;;;;;;;;19.40;84.00;;;;;;6280467;22;20230;-71
2023/01/19 00:23:40;;;;;;;;;;;19.40;81.80;;;;;;6280669;22;19902;-72
2023/01/19 00:26:09;;;;;;;;;;;19.50;82.80;;;;;;6308155;22;19934;-72
2023/01/19 00:28:35;;;;;;;;;;;19.40;82.50;;;;;;6307383;22;20326;-71
2023/01/19 00:31:02;;;;;;;;;;;19.40;82.00;;;;;;6280372;22;19941;-72
2023/01/19 00:33:29;;;;;;;;;;;19.50;80.70;;;;;;6307406;22;20285;-73
2023/01/19 00:35:55;;;;;;;;;;;19.50;81.80;;;;;;6307419;22;20377;-72
2023/01/19 00:38:22;;;;;;;;;;;19.50;79.20;;;;;;6280948;22;19970;-73
2023/01/19 00:40:49;;;;;;;;;;;19.50;79.00;;;;;;6280480;22;19903;-73
2023/01/19 00:43:16;;;;;;;;;;;19.70;79.40;;;;;;6280574;22;19907;-73
2023/01/19 00:45:42;;;;;;;;;;;19.70;79.90;;;;;;6307247;22;19918;-73
2023/01/19 00:48:09;;;;;;;;;;;19.70;79.80;;;;;;6280654;22;20238;-73
2023/01/19 00:50:36;;;;;;;;;;;19.80;80.60;;;;;;6307470;22;19906;-73
2023/01/19 00:53:02;;;;;;;;;;;19.70;78.20;;;;;;6307059;22;20292;-73
2023/01/19 00:55:29;;;;;;;;;;;19.80;78.30;;;;;;6307362;22;20329;-73
2023/01/19 00:57:56;;;;;;;;;;;19.80;78.00;;;;;;6280331;22;19910;-74
2023/01/19 01:00:23;;;;;;;;;;;19.70;77.60;;;;;;6280603;22;19984;-73
2023/01/19 01:02:50;;;;;;;;;;;19.80;77.70;;;;;;6280288;22;19902;-73
2023/01/19 01:05:17;;;;;;;;;;;19.80;78.70;;;;;;6280199;22;19918;-74
2023/01/19 01:07:44;;;;;;;;;;;19.80;78.90;;;;;;6280526;22;19903;-74
2023/01/19 01:10:11;;;;;;;;;;;19.70;78.50;;;;;;6280302;22;19938;-73
2023/01/19 01:12:38;;;;;;;;;;;19.80;80.00;;;;;;6280147;22;19903;-73
2023/01/19 01:15:08;;;;;;;;;;;19.70;77.10;;;;;;6307365;22;19907;-71
2023/01/19 01:17:35;;;;;;;;;;;19.70;77.80;;;;;;6307255;22;19975;-71
2023/01/19 01:20:03;;;;;;;;;;;19.70;78.40;;;;;;6279595;22;19903;-71
2023/01/19 01:22:30;;;;;;;;;;;19.80;78.60;;;;;;6307181;22;19978;-71
2023/01/19 01:24:56;;;;;;;;;;;19.70;77.70;;;;;;6307580;22;20401;-71
2023/01/19 01:27:23;;;;;;;;;;;19.80;77.40;;;;;;6307303;22;19971;-73
2023/01/19 01:29:50;;;;;;;;;;;19.70;76.70;;;;;;6307206;22;19903;-73
2023/01/19 01:32:16;;;;;;;;;;;19.60;77.60;;;;;;6280329;22;19971;-73
2023/01/19 01:34:43;;;;;;;;;;;19.70;79.60;;;;;;6306537;22;20273;-73
2023/01/19 01:37:10;;;;;;;;;;;19.60;77.30;;;;;;6307123;22;19915;-73
2023/01/19 01:39:36;;;;;;;;;;;19.60;78.30;;;;;;6307343;22;19910;-73
2023/01/19 01:42:05;;;;;;;;;;;19.60;77.50;;;;;;6306911;22;20322;-73
2023/01/19 01:44:49;;;;;;;;;;;19.70;78.50;;;;;;6279728;22;19910;-73
2023/01/19 01:47:34;;;;;;;;;;;19.70;77.80;;;;;;6306847;22;19910;-73
2023/01/19 01:50:05;;;;;;;;;;;19.60;77.30;;;;;;6306858;22;19903;-73
2023/01/19 01:52:32;;;;;;;;;;;19.70;76.00;;;;;;6279752;22;19911;-74
2023/01/19 01:54:58;;;;;;;;;;;19.70;77.10;;;;;;6279643;22;19903;-71
2023/01/19 01:57:26;;;;;;;;;;;19.70;78.30;;;;;;6279403;22;19957;-71
2023/01/19 01:59:53;;;;;;;;;;;19.70;77.60;;;;;;6280144;22;19964;-73
2023/01/19 02:05:07;;;;;;;;;;;19.60;77.20;;;;;;6283342;22;20001;-73
2023/01/19 02:13:21;;;;;;;;;;;19.30;82.00;;;;;;6306841;22;19925;-73
2023/01/19 02:15:48;;;;;;;;;;;19.20;81.80;;;;;;6256212;22;19903;-71
2023/01/19 02:18:15;;;;;;;;;;;19.20;81.40;;;;;;6253814;22;20344;-70
2023/01/19 02:20:44;;;;;;;;;;;19.10;83.10;;;;;;6279293;22;19933;-73
2023/01/19 02:23:17;;;;;;;;;;;19.10;83.90;;;;;;6279316;22;19945;-74
2023/01/19 02:25:43;;;;;;;;;;;19.00;83.60;;;;;;6279710;22;19911;-72
2023/01/19 02:28:10;;;;;;;;;;;18.80;81.10;;;;;;6279658;22;19910;-70
2023/01/19 02:30:37;;;;;;;;;;;18.80;82.50;;;;;;6279910;22;19957;-71
2023/01/19 02:33:04;;;;;;;;;;;18.90;81.90;;;;;;6279245;22;20001;-71
2023/01/19 02:35:30;;;;;;;;;;;18.90;81.10;;;;;;6306709;22;20252;-71
2023/01/19 02:37:57;;;;;;;;;;;19.00;81.00;;;;;;6279919;22;20249;-73
2023/01/19 02:40:24;;;;;;;;;;;19.10;81.00;;;;;;6279288;22;19910;-74
2023/01/19 02:42:51;;;;;;;;;;;19.20;79.90;;;;;;6279372;22;20341;-73
2023/01/19 02:45:19;;;;;;;;;;;19.20;80.40;;;;;;6279387;22;20284;-73
2023/01/19 02:47:46;;;;;;;;;;;19.10;78.90;;;;;;6279449;22;19910;-73
2023/01/19 02:50:31;;;;;;;;;;;19.20;78.40;;;;;;6306361;22;19902;-73
2023/01/19 02:52:59;;;;;;;;;;;19.30;78.60;;;;;;6306628;22;19902;-73
2023/01/19 02:55:26;;;;;;;;;;;19.40;76.60;;;;;;6279216;22;19907;-73
2023/01/19 02:58:08;;;;;;;;;;;19.40;76.70;;;;;;6279496;22;19903;-73
2023/01/19 03:00:41;;;;;;;;;;;19.60;76.80;;;;;;6279522;22;19903;-72
2023/01/19 03:03:13;;;;;;;;;;;19.70;74.00;;;;;;6306423;22;19956;-72
2023/01/19 03:05:44;;;;;;;;;;;19.70;74.00;;;;;;6306632;22;19970;-73
2023/01/19 03:08:11;;;;;;;;;;;19.70;75.20;;;;;;6279541;22;19903;-73
2023/01/19 03:10:44;;;;;;;;;;;19.70;73.30;;;;;;6306516;22;19903;-72
2023/01/19 03:13:13;;;;;;;;;;;19.80;74.50;;;;;;6306369;22;19913;-72
2023/01/19 03:15:40;;;;;;;;;;;19.80;75.40;;;;;;6306478;22;19910;-73
2023/01/19 03:18:08;;;;;;;;;;;19.80;74.40;;;;;;6306560;22;19941;-73
2023/01/19 03:20:34;;;;;;;;;;;19.80;71.30;;;;;;6279617;22;19914;-72
2023/01/19 03:23:02;;;;;;;;;;;19.70;71.40;;;;;;6305966;22;19941;-72
2023/01/19 03:25:30;;;;;;;;;;;19.70;71.80;;;;;;6278933;22;19919;-72
2023/01/19 03:27:57;;;;;;;;;;;19.70;72.80;;;;;;6278746;22;20006;-71
2023/01/19 03:30:25;;;;;;;;;;;19.70;72.60;;;;;;6279282;22;19910;-72
2023/01/19 03:32:56;;;;;;;;;;;19.70;73.20;;;;;;6306242;22;20284;-72
2023/01/19 03:35:23;;;;;;;;;;;19.70;72.10;;;;;;6280831;22;20228;-72
2023/01/19 03:37:52;;;;;;;;;;;19.70;73.00;;;;;;6281257;22;20317;-72
2023/01/19 03:40:18;;;;;;;;;;;19.70;71.20;;;;;;6307834;22;19964;-72
2023/01/19 03:42:45;;;;;;;;;;;19.70;71.30;;;;;;6308509;22;19907;-72
2023/01/19 03:45:12;;;;;;;;;;;19.70;72.10;;;;;;6308092;22;19982;-72
2023/01/19 03:47:39;;;;;;;;;;;19.70;72.20;;;;;;6280856;22;19982;-72
2023/01/19 03:50:06;;;;;;;;;;;19.80;73.20;;;;;;6281316;22;20297;-72
2023/01/19 03:52:33;;;;;;;;;;;19.80;72.30;;;;;;6281028;22;19911;-72
2023/01/19 03:55:03;;;;;;;;;;;19.80;73.00;;;;;;6280474;22;19903;-73
2023/01/19 03:57:30;;;;;;;;;;;19.70;73.30;;;;;;6281040;22;20032;-72
2023/01/19 03:59:57;;;;;;;;;;;19.60;75.00;;;;;;6308092;22;19903;-72
2023/01/19 04:02:23;;;;;;;;;;;19.70;75.00;;;;;;6281200;22;20336;-72
2023/01/19 04:04:50;;;;;;;;;;;19.70;76.50;;;;;;6280608;22;19949;-72
2023/01/19 04:07:17;;;;;;;;;;;19.60;76.10;;;;;;6280661;22;19968;-74
2023/01/19 04:09:43;;;;;;;;;;;19.50;75.70;;;;;;6307703;22;19903;-73
2023/01/19 04:12:10;;;;;;;;;;;19.60;76.80;;;;;;6307961;22;19938;-73
2023/01/19 04:14:37;;;;;;;;;;;19.60;76.60;;;;;;6280582;22;19903;-73
2023/01/19 04:17:03;;;;;;;;;;;19.60;75.80;;;;;;6307757;22;19903;-72
2023/01/19 04:19:30;;;;;;;;;;;19.70;75.40;;;;;;6307872;22;19903;-73
2023/01/19 04:21:57;;;;;;;;;;;19.60;75.10;;;;;;6307293;22;19913;-73
2023/01/19 04:24:23;;;;;;;;;;;19.60;74.00;;;;;;6307752;22;19910;-73
2023/01/19 04:26:52;;;;;;;;;;;19.50;73.30;;;;;;6307436;22;20305;-72
2023/01/19 04:29:19;;;;;;;;;;;19.50;74.20;;;;;;6307527;22;19910;-72
2023/01/19 04:31:45;;;;;;;;;;;19.60;73.90;;;;;;6307334;22;19910;-72
2023/01/19 04:34:12;;;;;;;;;;;19.60;74.10;;;;;;6280667;22;19910;-73
2023/01/19 04:36:39;;;;;;;;;;;19.70;74.90;;;;;;6307058;22;20227;-72
2023/01/19 04:39:07;;;;;;;;;;;19.70;74.10;;;;;;6308142;22;19934;-72
2023/01/19 04:41:34;;;;;;;;;;;19.70;74.10;;;;;;6279240;22;19969;-71
2023/01/19 04:44:01;;;;;;;;;;;19.70;73.00;;;;;;6307022;22;19907;-72
2023/01/19 04:46:27;;;;;;;;;;;19.70;75.20;;;;;;6307286;22;19918;-72
2023/01/19 04:48:57;;;;;;;;;;;19.60;74.20;;;;;;6303701;22;20269;-74
2023/01/19 04:51:24;;;;;;;;;;;19.60;74.20;;;;;;6276295;22;19938;-74
2023/01/19 04:53:50;;;;;;;;;;;19.60;75.00;;;;;;6304044;22;19910;-75
2023/01/19 04:56:17;;;;;;;;;;;19.50;74.90;;;;;;6276770;22;19907;-74
2023/01/19 04:58:44;;;;;;;;;;;19.50;75.50;;;;;;6303690;22;19921;-73
2023/01/19 05:01:10;;;;;;;;;;;19.60;75.70;;;;;;6303451;22;19911;-73
2023/01/19 05:03:37;;;;;;;;;;;19.60;74.40;;;;;;6303757;22;19910;-73
2023/01/19 05:06:04;;;;;;;;;;;19.70;74.10;;;;;;6303987;22;19915;-74
2023/01/19 05:08:30;;;;;;;;;;;19.70;74.90;;;;;;6304202;22;19914;-73
2023/01/19 05:10:58;;;;;;;;;;;19.70;74.80;;;;;;6302067;22;19907;-73
2023/01/19 05:13:24;;;;;;;;;;;19.70;74.00;;;;;;6303487;22;20330;-72
2023/01/19 05:15:54;;;;;;;;;;;19.70;74.40;;;;;;6303583;22;20019;-73
2023/01/19 05:18:20;;;;;;;;;;;19.80;75.50;;;;;;6303864;22;19910;-74
2023/01/19 05:20:47;;;;;;;;;;;19.70;72.10;;;;;;6303700;22;19907;-72
2023/01/19 05:23:14;;;;;;;;;;;19.80;72.80;;;;;;6303767;22;19921;-72
2023/01/19 05:25:41;;;;;;;;;;;19.80;71.60;;;;;;6303747;22;19915;-71
2023/01/19 05:28:08;;;;;;;;;;;19.80;71.40;;;;;;6303703;22;19914;-73
2023/01/19 05:30:35;;;;;;;;;;;19.80;72.40;;;;;;6303754;22;19961;-73
2023/01/19 05:33:01;;;;;;;;;;;19.80;74.30;;;;;;6303401;22;19940;-70
2023/01/19 05:35:28;;;;;;;;;;;19.80;72.60;;;;;;6303713;22;19953;-70
2023/01/19 05:37:55;;;;;;;;;;;19.90;73.30;;;;;;6303391;22;19929;-75
2023/01/19 05:40:22;;;;;;;;;;;19.90;72.50;;;;;;6303775;22;19911;-74
2023/01/19 05:42:49;;;;;;;;;;;19.90;73.60;;;;;;6304223;22;19922;-74
2023/01/19 05:45:15;;;;;;;;;;;20.00;72.10;;;;;;6303687;22;20246;-73
2023/01/19 05:47:42;;;;;;;;;;;19.90;72.00;;;;;;6304097;22;19907;-74
2023/01/19 05:50:09;;;;;;;;;;;19.90;73.50;;;;;;6301495;22;19907;-73
2023/01/19 05:52:36;;;;;;;;;;;19.90;74.10;;;;;;6275111;22;19903;-73
2023/01/19 05:55:03;;;;;;;;;;;19.80;73.00;;;;;;6275774;22;19906;-74
2023/01/19 05:57:29;;;;;;;;;;;19.80;73.40;;;;;;6302593;22;19907;-74
2023/01/19 05:59:59;;;;;;;;;;;19.80;73.70;;;;;;6302868;22;19903;-74
2023/01/19 06:02:27;;;;;;;;;;;19.90;73.60;;;;;;6274756;22;19907;-74
2023/01/19 06:04:54;;;;;;;;;;;19.90;72.40;;;;;;6275391;22;19914;-73
2023/01/19 06:07:20;;;;;;;;;;;20.00;72.80;;;;;;6275304;22;19907;-74
2023/01/19 06:09:47;;;;;;;;;;;19.90;74.00;;;;;;6302714;22;19914;-74
2023/01/19 06:12:14;;;;;;;;;;;19.90;74.70;;;;;;6300368;22;19911;-72
2023/01/19 06:14:41;;;;;;;;;;;19.90;73.30;;;;;;6303981;22;20265;-74
2023/01/19 06:17:07;;;;;;;;;;;19.80;74.50;;;;;;6302479;22;20006;-75
2023/01/19 06:19:34;;;;;;;;;;;19.80;75.20;;;;;;6275625;22;19914;-74
2023/01/19 06:22:01;;;;;;;;;;;19.80;76.40;;;;;;6302839;22;19906;-74
2023/01/19 06:24:28;;;;;;;;;;;19.80;76.00;;;;;;6302682;22;19926;-74
2023/01/19 06:26:55;;;;;;;;;;;19.70;76.20;;;;;;6302958;22;19915;-74
2023/01/19 06:29:22;;;;;;;;;;;19.80;76.00;;;;;;6302813;22;19941;-74
2023/01/19 06:31:48;;;;;;;;;;;19.70;75.60;;;;;;6302586;22;19903;-71
2023/01/19 06:34:15;;;;;;;;;;;19.70;76.60;;;;;;6302530;22;19907;-71
2023/01/19 06:36:41;;;;;;;;;;;19.70;75.80;;;;;;6301748;22;19923;-73
2023/01/19 06:39:09;;;;;;;;;;;19.70;76.10;;;;;;6249625;22;19915;-74
2023/01/19 06:41:36;;;;;;;;;;;19.70;77.00;;;;;;6275627;22;20297;-74
2023/01/19 06:44:02;;;;;;;;;;;19.70;76.60;;;;;;6302593;22;19907;-73
2023/01/19 06:46:29;;;;;;;;;;;19.70;77.20;;;;;;6275082;22;20317;-73
2023/01/19 06:48:56;;;;;;;;;;;19.70;77.20;;;;;;6302007;22;19907;-73
2023/01/19 06:51:23;;;;;;;;;;;19.80;77.80;;;;;;6302619;22;20282;-73
2023/01/19 06:53:49;;;;;;;;;;;19.80;78.40;;;;;;6300747;22;20242;-73
2023/01/19 06:56:16;;;;;;;;;;;19.80;76.20;;;;;;6274423;22;19966;-72
2023/01/19 06:58:43;;;;;;;;;;;19.70;76.80;;;;;;6302092;22;19914;-74
2023/01/19 07:01:10;;;;;;;;;;;19.70;76.80;;;;;;6302303;22;19909;-75
2023/01/19 07:03:37;;;;;;;;;;;19.70;76.00;;;;;;6303067;22;19927;-74
2023/01/19 07:06:05;;;;;;;;;;;19.80;77.20;;;;;;6302402;22;19925;-73
2023/01/19 07:08:32;;;;;;;;;;;19.70;77.40;;;;;;6303536;22;19972;-73
2023/01/19 07:11:01;;;;;;;;;;;19.70;77.50;;;;;;6275509;22;19907;-75
2023/01/19 07:13:27;;;;;;;;;;;19.80;77.50;;;;;;6278158;22;19906;-74
2023/01/19 07:15:54;;;;;;;;;;;19.80;78.00;;;;;;6305021;22;19907;-75
2023/01/19 07:18:21;;;;;;;;;;;19.80;78.30;;;;;;6277150;22;19964;-77
2023/01/19 07:20:48;;;;;;;;;;;19.70;77.90;;;;;;6305081;22;20411;-78
2023/01/19 07:23:17;;;;;;;;;;;19.70;79.30;;;;;;6252620;22;20329;-72
2023/01/19 07:25:45;;;;;;;;;;;19.70;79.50;;;;;;6304607;22;19919;-77
2023/01/19 07:28:14;;;;;;;;;;;19.60;78.20;;;;;;6305476;22;19919;-77
2023/01/19 07:30:41;;;;;;;;;;;19.50;78.10;;;;;;6305444;22;19974;-74
2023/01/19 07:33:08;;;;;;;;;;;19.50;78.50;;;;;;6277896;22;20358;-73
2023/01/19 07:35:35;;;;;;;;;;;19.50;78.30;;;;;;6304775;22;19972;-74
2023/01/19 09:53:41;;;;;;;;;;;19.50;80.30;;;;;;6302342;22;19930;-71
2023/01/19 09:56:12;;;;;;;;;;;19.60;80.50;;;;;;6304069;22;19911;-72
2023/01/19 09:58:40;;;;;;;;;;;19.50;80.30;;;;;;6276910;22;20326;-73
2023/01/19 10:01:16;;;;;;;;;;;19.50;80.50;;;;;;6303153;22;19910;-75
2023/01/19 10:03:43;;;;;;;;;;;19.50;80.60;;;;;;6276235;22;19907;-72
2023/01/19 10:06:10;;;;;;;;;;;19.50;81.10;;;;;;6303304;22;19922;-72
2023/01/19 10:08:37;;;;;;;;;;;19.50;80.90;;;;;;6276786;22;20041;-72
2023/01/19 10:11:05;;;;;;;;;;;19.50;81.00;;;;;;6303543;22;19907;-72
2023/01/19 10:13:41;;;;;;;;;;;19.50;80.10;;;;;;6303236;22;20336;-72
2023/01/19 10:16:26;;;;;;;;;;;19.60;80.20;;;;;;6303294;22;19961;-73
2023/01/19 10:18:53;;;;;;;;;;;19.70;80.30;;;;;;6303550;22;19907;-72
2023/01/19 10:21:20;;;;;;;;;;;19.70;79.80;;;;;;6276618;22;19907;-73
2023/01/19 10:24:05;;;;;;;;;;;19.70;79.80;;;;;;6303505;22;19941;-71
2023/01/19 10:26:35;;;;;;;;;;;19.80;79.80;;;;;;6302750;22;19950;-71
2023/01/19 10:29:03;;;;;;;;;;;19.80;77.80;;;;;;6302903;22;19907;-72
2023/01/19 10:31:30;;;;;;;;;;;19.90;77.60;;;;;;6273851;22;19909;-72
2023/01/19 10:37:28;;;;;;;;;;;20.00;78.50;;;;;;6303441;22;19918;-73
2023/01/19 10:39:56;;;;;;;;;;;20.00;77.90;;;;;;6303816;22;20257;-73
2023/01/19 10:42:25;;;;;;;;;;;20.10;77.90;;;;;;6275713;22;19911;-71
2023/01/19 10:44:51;;;;;;;;;;;20.10;78.60;;;;;;6275856;22;19936;-73
2023/01/19 10:47:19;;;;;;;;;;;20.10;78.00;;;;;;6303097;22;19915;-72
2023/01/19 10:49:46;;;;;;;;;;;20.10;78.80;;;;;;6303734;22;19910;-73
2023/01/19 10:52:18;;;;;;;;;;;20.20;77.40;;;;;;6275754;22;19926;-72
2023/01/19 10:54:47;;;;;;;;;;;20.20;78.60;;;;;;6275830;22;19907;-72
2023/01/19 10:57:19;;;;;;;;;;;20.20;77.50;;;;;;6276445;22;19956;-72
2023/01/19 10:59:49;;;;;;;;;;;20.20;78.00;;;;;;6275830;22;19929;-72
2023/01/19 11:02:25;;;;;;;;;;;20.20;77.60;;;;;;6275690;22;19910;-73
2023/01/19 11:04:53;;;;;;;;;;;20.20;77.70;;;;;;6274652;22;20206;-74
2023/01/19 11:07:25;;;;;;;;;;;20.20;78.10;;;;;;6302807;22;19918;-74
2023/01/19 11:10:10;;;;;;;;;;;20.20;77.40;;;;;;6301832;22;19929;-73
2023/01/19 11:12:40;;;;;;;;;;;20.20;77.70;;;;;;6301951;22;20305;-73
2023/01/19 11:15:20;;;;;;;;;;;20.20;77.90;;;;;;6275354;22;20215;-75
2023/01/19 11:17:47;;;;;;;;;;;20.20;78.00;;;;;;6275776;22;19903;-74
2023/01/19 11:20:27;;;;;;;;;;;20.20;77.90;;;;;;6303512;22;19918;-74
2023/01/19 11:23:12;;;;;;;;;;;20.20;77.60;;;;;;6276149;22;20333;-72
2023/01/19 11:25:38;;;;;;;;;;;20.20;76.70;;;;;;6302823;22;20254;-74
2023/01/19 11:28:05;;;;;;;;;;;20.30;76.10;;;;;;6302946;22;20346;-74
2023/01/19 11:30:32;;;;;;;;;;;20.30;77.00;;;;;;6300700;22;20013;-75
2023/01/19 11:32:59;;;;;;;;;;;20.30;76.60;;;;;;6273490;22;19907;-75
2023/01/19 11:35:31;;;;;;;;;;;20.30;75.60;;;;;;6302933;22;19911;-75
2023/01/19 11:38:17;;;;;;;;;;;20.30;76.40;;;;;;6275340;22;20577;-74
2023/01/19 11:40:48;;;;;;;;;;;20.30;76.50;;;;;;6302988;22;19953;-74
2023/01/19 11:43:15;;;;;;;;;;;20.30;76.60;;;;;;6250105;22;19907;-73
2023/01/19 11:45:41;;;;;;;;;;;20.30;77.00;;;;;;6302659;22;19980;-73
2023/01/19 11:48:09;;;;;;;;;;;20.30;77.10;;;;;;6302580;22;19960;-72
2023/01/19 11:50:43;;;;;;;;;;;20.30;77.80;;;;;;6274800;22;19914;-72
2023/01/19 11:53:13;;;;;;;;;;;20.30;77.90;;;;;;6301918;22;19925;-73
2023/01/19 11:55:57;;;;;;;;;;;20.30;77.30;;;;;;6304085;22;19985;-73
2023/01/19 11:58:24;;;;;;;;;;;20.30;76.90;;;;;;6304173;22;19973;-73
2023/01/19 12:01:03;;;;;;;;;;;20.30;77.20;;;;;;6304209;22;19943;-73
2023/01/19 12:03:32;;;;;;;;;;;20.30;77.30;;;;;;6305124;22;19986;-73
2023/01/19 12:06:17;;;;;;;;;;;20.30;77.10;;;;;;6304507;22;19918;-73
2023/01/19 12:09:10;;;;;;;;;;;20.30;76.90;;;;;;6304321;22;19914;-73
2023/01/19 12:11:44;;;;;;;;;;;20.30;77.00;;;;;;6297522;22;20310;-73
2023/01/19 12:14:31;;;;;;;;;;;20.30;77.10;;;;;;6277515;22;19914;-74
2023/01/19 12:16:58;;;;;;;;;;;20.30;77.00;;;;;;6277491;22;19914;-74
2023/01/19 12:19:27;;;;;;;;;;;20.30;75.50;;;;;;6277037;22;20389;-72
2023/01/19 12:21:53;;;;;;;;;;;20.30;76.00;;;;;;6276872;22;19964;-73
2023/01/19 12:24:27;;;;;;;;;;;20.30;76.70;;;;;;6277387;22;19903;-74
2023/01/19 12:26:54;;;;;;;;;;;20.30;75.70;;;;;;6276799;22;19911;-73
2023/01/19 12:29:21;;;;;;;;;;;20.30;75.60;;;;;;6302074;22;19957;-74
2023/01/19 12:32:06;;;;;;;;;;;20.30;74.60;;;;;;6277012;22;19900;-73
2023/01/19 12:34:38;;;;;;;;;;;20.40;75.20;;;;;;6304398;22;19908;-77
2023/01/19 12:37:06;;;;;;;;;;;20.30;74.40;;;;;;6304483;22;19907;-76
2023/01/19 12:39:34;;;;;;;;;;;20.30;75.30;;;;;;6277322;22;19957;-74
2023/01/19 12:42:04;;;;;;;;;;;20.30;75.10;;;;;;6304789;22;19915;-77
2023/01/19 12:44:32;;;;;;;;;;;20.30;74.80;;;;;;6277618;22;19959;-77
2023/01/19 12:47:18;;;;;;;;;;;20.30;74.70;;;;;;6277637;22;20750;-73
2023/01/19 12:49:46;;;;;;;;;;;20.40;74.60;;;;;;6304132;22;19948;-74
2023/01/19 12:52:16;;;;;;;;;;;20.30;75.00;;;;;;6276630;22;19934;-73
2023/01/19 12:54:55;;;;;;;;;;;20.40;74.70;;;;;;6277133;22;19906;-72
2023/01/19 12:57:23;;;;;;;;;;;20.40;75.30;;;;;;6302693;22;19906;-74
2023/01/19 12:59:59;;;;;;;;;;;20.40;75.50;;;;;;6277008;22;19903;-72
2023/01/19 13:02:26;;;;;;;;;;;20.40;76.30;;;;;;6306793;22;20237;-73
2023/01/19 13:05:08;;;;;;;;;;;20.40;76.40;;;;;;6279276;22;19903;-74
2023/01/19 13:07:53;;;;;;;;;;;20.40;75.70;;;;;;6306462;22;19922;-73
2023/01/19 13:10:38;;;;;;;;;;;20.40;76.20;;;;;;6307539;22;19903;-73
2023/01/19 13:13:21;;;;;;;;;;;20.40;75.00;;;;;;6307386;22;19934;-74
2023/01/19 13:15:48;;;;;;;;;;;20.40;74.90;;;;;;6307117;22;19903;-75
2023/01/19 13:18:20;;;;;;;;;;;20.40;75.30;;;;;;6280281;22;19903;-74
2023/01/19 13:20:49;;;;;;;;;;;20.40;76.30;;;;;;6307287;22;19903;-74
2023/01/19 13:23:22;;;;;;;;;;;20.30;77.50;;;;;;6254540;22;19910;-75
2023/01/19 13:26:00;;;;;;;;;;;20.20;77.90;;;;;;6306954;22;20303;-74
2023/01/19 13:28:32;;;;;;;;;;;20.20;78.30;;;;;;6280439;22;19903;-75
2023/01/19 13:30:59;;;;;;;;;;;20.10;78.40;;;;;;6279895;22;19984;-74
2023/01/19 13:33:26;;;;;;;;;;;20.10;78.80;;;;;;6280143;22;20318;-74
2023/01/19 13:35:54;;;;;;;;;;;20.10;79.00;;;;;;6280073;22;19918;-74
2023/01/19 13:38:21;;;;;;;;;;;20.00;79.30;;;;;;6279792;22;19929;-74
2023/01/19 13:40:48;;;;;;;;;;;20.00;79.60;;;;;;6279697;22;19917;-74
2023/01/19 13:43:19;;;;;;;;;;;20.00;80.00;;;;;;6306947;22;20321;-75
2023/01/19 13:45:46;;;;;;;;;;;20.00;80.20;;;;;;6279859;22;19922;-75
2023/01/19 13:48:15;;;;;;;;;;;19.90;80.50;;;;;;6279990;22;19911;-75
2023/01/19 13:50:44;;;;;;;;;;;19.90;80.80;;;;;;6306823;22;19903;-74
2023/01/19 13:53:22;;;;;;;;;;;19.90;80.80;;;;;;6306692;22;19922;-74
2023/01/19 13:56:07;;;;;;;;;;;19.90;80.90;;;;;;6307114;22;19964;-74
2023/01/19 13:58:34;;;;;;;;;;;19.90;81.10;;;;;;6306965;22;20237;-74
2023/01/19 14:01:01;;;;;;;;;;;19.90;81.40;;;;;;6279855;22;20311;-74
2023/01/19 14:03:27;;;;;;;;;;;19.80;81.40;;;;;;6279605;22;20291;-74
2023/01/19 14:05:54;;;;;;;;;;;19.80;81.70;;;;;;6307031;22;19911;-74
2023/01/19 14:08:21;;;;;;;;;;;19.80;81.70;;;;;;6279910;22;20318;-74
2023/01/19 14:10:55;;;;;;;;;;;19.80;81.40;;;;;;6306816;22;19903;-74
2023/01/19 14:13:24;;;;;;;;;;;19.80;81.50;;;;;;6306980;22;20396;-74
2023/01/19 14:15:50;;;;;;;;;;;19.80;81.60;;;;;;6306901;22;19931;-74
2023/01/19 14:18:17;;;;;;;;;;;19.80;81.90;;;;;;6279642;22;19941;-74
2023/01/19 14:21:10;;;;;;;;;;;19.70;82.10;;;;;;6306585;22;19910;-74
2023/01/19 14:23:50;;;;;;;;;;;19.80;82.10;;;;;;6300031;22;19910;-74
2023/01/19 14:26:35;;;;;;;;;;;19.70;82.20;;;;;;6279927;22;19962;-74
2023/01/19 14:29:20;;;;;;;;;;;19.70;82.30;;;;;;6279277;22;19918;-74
2023/01/19 14:32:07;;;;;;;;;;;19.70;82.40;;;;;;6306478;22;19902;-74
2023/01/19 14:34:33;;;;;;;;;;;19.60;82.60;;;;;;6280068;22;20318;-74
2023/01/19 14:37:00;;;;;;;;;;;19.60;82.80;;;;;;6306748;22;19938;-74
2023/01/19 14:39:28;;;;;;;;;;;19.60;83.00;;;;;;6279406;22;20316;-74
2023/01/19 14:41:55;;;;;;;;;;;19.50;82.80;;;;;;6279646;22;19977;-74
2023/01/19 14:44:28;;;;;;;;;;;19.50;82.90;;;;;;6279829;22;20314;-74
2023/01/19 14:46:55;;;;;;;;;;;19.50;83.00;;;;;;6306589;22;19918;-74
2023/01/19 14:49:25;;;;;;;;;;;19.50;82.80;;;;;;6306823;22;19902;-75
2023/01/19 14:51:52;;;;;;;;;;;19.50;82.90;;;;;;6279276;22;19911;-74
2023/01/19 14:54:20;;;;;;;;;;;19.50;82.90;;;;;;6306700;22;19911;-74
2023/01/19 14:56:46;;;;;;;;;;;19.50;83.10;;;;;;6279744;22;19911;-74
2023/01/19 14:59:13;;;;;;;;;;;19.50;82.80;;;;;;6279663;22;19910;-74
2023/01/19 15:01:40;;;;;;;;;;;19.50;83.00;;;;;;6278936;22;19907;-74
2023/01/19 15:04:06;;;;;;;;;;;19.50;83.10;;;;;;6306838;22;19903;-74
2023/01/19 15:06:33;;;;;;;;;;;19.50;83.00;;;;;;6306648;22;19911;-74
2023/01/19 15:08:59;;;;;;;;;;;19.50;83.00;;;;;;6278899;22;19910;-74
2023/01/19 15:11:27;;;;;;;;;;;19.50;83.20;;;;;;6306268;22;19903;-74
2023/01/19 15:13:54;;;;;;;;;;;19.50;83.50;;;;;;6278628;22;19903;-74
2023/01/19 15:16:21;;;;;;;;;;;19.40;83.90;;;;;;6279081;22;19914;-73
2023/01/19 15:18:47;;;;;;;;;;;19.40;84.30;;;;;;6278966;22;19903;-74
2023/01/19 15:21:15;;;;;;;;;;;19.40;84.30;;;;;;6306011;22;19903;-74
2023/01/19 15:23:41;;;;;;;;;;;19.40;83.90;;;;;;6279375;22;20242;-74
2023/01/19 15:26:09;;;;;;;;;;;19.40;84.20;;;;;;6278766;22;19915;-74
2023/01/19 15:28:36;;;;;;;;;;;19.40;83.90;;;;;;6306712;22;20314;-74
2023/01/19 15:31:03;;;;;;;;;;;19.40;84.00;;;;;;6308616;22;19907;-74
2023/01/19 15:33:29;;;;;;;;;;;19.40;83.90;;;;;;6308583;22;19902;-74
2023/01/19 15:35:56;;;;;;;;;;;19.30;83.90;;;;;;6308535;22;19903;-74
2023/01/19 15:38:23;;;;;;;;;;;19.40;83.90;;;;;;6281149;22;19949;-74
2023/01/19 15:40:49;;;;;;;;;;;19.40;84.00;;;;;;6308450;22;19903;-74
2023/01/19 15:43:16;;;;;;;;;;;19.30;83.90;;;;;;6281111;22;19974;-74
2023/01/19 15:45:43;;;;;;;;;;;19.40;83.60;;;;;;6280844;22;20335;-74
2023/01/19 15:48:10;;;;;;;;;;;19.40;83.70;;;;;;6281164;22;19994;-74
2023/01/19 15:50:41;;;;;;;;;;;19.40;83.90;;;;;;6307926;22;19973;-74
2023/01/19 15:53:09;;;;;;;;;;;19.50;82.90;;;;;;6307932;22;20317;-74
2023/01/19 15:55:36;;;;;;;;;;;19.50;83.40;;;;;;6281006;22;19981;-74
2023/01/19 15:58:03;;;;;;;;;;;19.60;83.90;;;;;;6307507;22;19902;-74
2023/01/19 16:00:33;;;;;;;;;;;19.60;82.70;;;;;;6307512;22;19950;-74
2023/01/19 16:02:59;;;;;;;;;;;19.60;83.00;;;;;;6308086;22;19994;-74
2023/01/19 16:05:26;;;;;;;;;;;19.60;82.30;;;;;;6280767;22;19964;-75
2023/01/19 16:07:53;;;;;;;;;;;19.70;82.30;;;;;;6307442;22;19970;-74
2023/01/19 16:10:20;;;;;;;;;;;19.70;82.20;;;;;;6307829;22;19903;-74
2023/01/19 16:12:49;;;;;;;;;;;19.70;81.60;;;;;;6307648;22;19978;-74
2023/01/19 16:15:16;;;;;;;;;;;19.70;81.50;;;;;;6308215;22;20317;-74
2023/01/19 16:17:43;;;;;;;;;;;19.70;81.00;;;;;;6307963;22;19915;-74
2023/01/19 16:20:10;;;;;;;;;;;19.70;80.80;;;;;;6280210;22;20006;-74
2023/01/19 16:22:37;;;;;;;;;;;19.70;81.30;;;;;;6254808;22;19950;-74
2023/01/19 16:25:04;;;;;;;;;;;19.70;80.90;;;;;;6280820;22;19986;-74
2023/01/19 16:27:30;;;;;;;;;;;19.60;80.20;;;;;;6280391;22;19954;-74
2023/01/19 16:30:03;;;;;;;;;;;19.60;80.00;;;;;;6307588;22;20566;-74
2023/01/19 16:32:31;;;;;;;;;;;19.60;80.10;;;;;;6307926;22;19903;-74
2023/01/19 16:34:58;;;;;;;;;;;19.50;80.50;;;;;;6307640;22;20218;-75
2023/01/19 16:37:25;;;;;;;;;;;19.50;80.00;;;;;;6307891;22;19903;-74
2023/01/19 16:39:51;;;;;;;;;;;19.50;80.50;;;;;;6308070;22;19907;-74
2023/01/19 16:42:18;;;;;;;;;;;19.50;80.80;;;;;;6307203;22;20325;-74
2023/01/19 16:44:45;;;;;;;;;;;19.50;80.40;;;;;;6308144;22;19911;-74
2023/01/19 16:47:11;;;;;;;;;;;19.50;80.30;;;;;;6307329;22;19911;-73
2023/01/19 16:49:38;;;;;;;;;;;19.50;80.70;;;;;;6305833;22;19907;-74
2023/01/19 16:52:06;;;;;;;;;;;19.50;81.30;;;;;;6306730;22;20246;-74
2023/01/19 16:54:33;;;;;;;;;;;19.50;81.40;;;;;;6307430;22;20250;-74